John P. Tully — CG2958 — position and weather

sailwx.info

Track history (hours):
 
Tides and Currents Weather Stations Pressure Air Temp Water Temp Dewpoint Dewpoint Depression Visibility Wind Speed Wind Dir Waves Ship Positions

Oceanographic research ship John P. Tully (Canada)

Detailed information on ship capabilities available from University of Delaware's Ocean Information Center.

Last reported at 2017-Nov-08 17:04 UTC. Time now 2017-Nov-21 08:20 UTC.
Position N 49°18' W 123°01'.
Warning: this ship's position is 12 days out of date.

Length 68.9 m; beam 14.5 m; draft 4.5 m.

MMSI: 316114000.

Date/timePositionNaut miles runAvg speedWind from/ knotsBaromVisibWave heightAir tempDewpointWater temp
2017-Nov-08 17:04N 49°18' W 123°01'0 0.0
2017-Nov-08 17:00N 49°18' W 123°01'0 1.0
2017-Nov-08 16:30N 49°18' W 123°01'1 2.3
2017-Nov-08 16:00N 49°18' W 123°03'1 2.9
2017-Nov-08 15:30N 49°18' W 123°05'4 8.8
2017-Nov-08 15:00N 49°19' W 123°12'2 3.9
2017-Nov-08 14:30N 49°18' W 123°14'2 3.4
2017-Nov-08 14:00N 49°18' W 123°17'3 5.2
2017-Nov-08 13:30N 49°15' W 123°19'3 5.6
2017-Nov-08 13:00N 49°13' W 123°19'3 6.4
2017-Nov-08 12:30N 49°09' W 123°20'3 6.1
2017-Nov-08 12:00N 49°06' W 123°20'3 4.9
2017-Nov-08 11:30N 49°04' W 123°20'3 5.3
2017-Nov-08 10:57N 49°02' W 123°17'3 6.1
2017-Nov-08 10:26N 48°60' W 123°13'3 5.2
2017-Nov-08 09:56N 48°58' W 123°10'2 5.8
2017-Nov-08 09:30N 48°57' W 123°07'3 5.8
2017-Nov-08 08:58N 48°54' W 123°04'7 4.7
2017-Nov-08 07:25N 48°48' W 122°60'2 5.1
2017-Nov-08 07:00N 48°46' W 123°02'3 5.3
2017-Nov-08 06:30N 48°45' W 123°05'3 5.2
2017-Nov-08 06:00N 48°44' W 123°09'2 4.5
2017-Nov-08 05:29N 48°43' W 123°12'2 4.5
2017-Nov-08 05:00N 48°44' W 123°15'  
2017-Nov-05 00:11N 48°44' W 123°24'210.8
2017-Nov-05 00:00N 48°45' W 123°22'510.0
2017-Nov-04 23:30N 48°50' W 123°21'4 7.5
2017-Nov-04 23:00N 48°53' W 123°18'510.8
2017-Nov-04 22:30N 48°59' W 123°19'4 7.7
2017-Nov-04 22:00N 49°03' W 123°19'0 0.1
2017-Nov-04 21:27N 49°03' W 123°19'0 0.1
2017-Nov-04 21:00N 49°03' W 123°19'1 2.0
2017-Nov-04 20:30N 49°03' W 123°18'2 3.9
2017-Nov-04 20:00N 49°05' W 123°20'0 0.0
2017-Nov-04 19:30N 49°05' W 123°20'0 0.0
2017-Nov-04 19:00N 49°05' W 123°20'0 0.0
2017-Nov-04 18:30N 49°05' W 123°20'0 0.0
2017-Nov-04 18:00N 49°05' W 123°20'0 0.0
2017-Nov-04 17:30N 49°05' W 123°20'0 0.1
2017-Nov-04 17:00N 49°05' W 123°20'0 0.1
2017-Nov-04 16:30N 49°05' W 123°20'0 0.1
2017-Nov-04 16:00N 49°05' W 123°20'0 0.0
2017-Nov-04 15:30N 49°05' W 123°20'0 0.1
2017-Nov-04 15:00N 49°05' W 123°20'0 0.0
2017-Nov-04 14:30N 49°05' W 123°20'0 0.1
2017-Nov-04 14:00N 49°05' W 123°20'0 0.7
2017-Nov-04 13:29N 49°05' W 123°21'2 3.6
2017-Nov-04 13:00N 49°04' W 123°23'2 3.9
2017-Nov-04 12:30N 49°03' W 123°26'2 4.4
2017-Nov-04 12:00N 49°02' W 123°28'2 4.3
2017-Nov-04 11:30N 49°01' W 123°31'0 0.7
2017-Nov-04 11:00N 49°01' W 123°31'2 4.0
2017-Nov-04 10:28N 49°02' W 123°28'2 4.7
2017-Nov-04 10:00N 49°03' W 123°25'2 4.1
2017-Nov-04 09:30N 49°04' W 123°22'2 3.6
2017-Nov-04 09:00N 49°05' W 123°20'2 3.2
2017-Nov-04 08:30N 49°04' W 123°22'2 4.7
2017-Nov-04 08:00N 49°03' W 123°25'2 3.9
2017-Nov-04 07:30N 49°02' W 123°28'2 3.9
2017-Nov-04 07:00N 49°01' W 123°31'1 2.2
2017-Nov-04 06:30N 49°00' W 123°32'0 0.5
2017-Nov-04 06:00N 49°00' W 123°32'2 2.9
2017-Nov-04 05:29N 49°01' W 123°30'2 3.6
2017-Nov-04 04:57N 49°02' W 123°28'2 4.3
2017-Nov-04 04:30N 49°03' W 123°25'2 4.2
2017-Nov-04 04:00N 49°04' W 123°22'2 3.8
2017-Nov-04 03:30N 49°05' W 123°20'0 0.0
2017-Nov-04 02:53N 49°05' W 123°20'0 0.7
2017-Nov-04 02:30N 49°05' W 123°20'0 0.4
2017-Nov-04 01:58N 49°05' W 123°20'0 0.1
2017-Nov-04 01:30N 49°05' W 123°20'0 0.0
2017-Nov-04 01:00N 49°05' W 123°20'0 0.1
2017-Nov-04 00:30N 49°05' W 123°20'0 0.1
2017-Nov-04 00:00N 49°05' W 123°20'0 0.2
2017-Nov-03 23:28N 49°05' W 123°20'0 0.1
2017-Nov-03 23:00N 49°05' W 123°20'0 0.1
2017-Nov-03 22:30N 49°05' W 123°20'0 0.1
2017-Nov-03 22:00N 49°05' W 123°20'0 0.1
2017-Nov-03 21:30N 49°05' W 123°20'0 0.0
2017-Nov-03 21:00N 49°05' W 123°20'0 0.0
2017-Nov-03 20:30N 49°05' W 123°20'0 0.0
2017-Nov-03 20:00N 49°05' W 123°20'0 0.0
2017-Nov-03 19:31N 49°05' W 123°20'0 0.0
2017-Nov-03 19:01N 49°05' W 123°20'0 0.1
2017-Nov-03 18:30N 49°05' W 123°20'0 0.0
2017-Nov-03 18:01N 49°05' W 123°20'1 1.0
2017-Nov-03 17:28N 49°04' W 123°20'2 3.1
2017-Nov-03 16:50N 49°02' W 123°19'0 0.5
2017-Nov-03 16:30N 49°03' W 123°19'0 0.0
2017-Nov-03 15:58N 49°03' W 123°19'0 0.1
2017-Nov-03 15:31N 49°03' W 123°19'0 0.0
2017-Nov-03 15:00N 49°03' W 123°19'0 0.0
2017-Nov-03 14:30N 49°03' W 123°19'0 0.9
2017-Nov-03 14:00N 49°02' W 123°20'1 1.1
2017-Nov-03 13:29N 49°02' W 123°19'4 7.9
2017-Nov-03 12:59N 48°59' W 123°14'4 9.0
2017-Nov-03 12:30N 48°57' W 123°09'5 8.9
2017-Nov-03 11:58N 48°53' W 123°04'610.3
2017-Nov-03 11:23N 48°48' W 122°60'411.3
2017-Nov-03 11:01N 48°45' W 123°04'510.7
2017-Nov-03 10:30N 48°46' W 123°12'2 3.7
2017-Nov-03 10:00N 48°47' W 123°14'0 0.0
2017-Nov-03 09:27N 48°47' W 123°14'0 0.1
2017-Nov-03 08:57N 48°47' W 123°14'0 0.0
2017-Nov-03 08:18N 48°47' W 123°14'0 0.1
2017-Nov-03 07:51N 48°47' W 123°14'0 0.1
2017-Nov-03 07:27N 48°47' W 123°14'0 0.1
2017-Nov-03 06:54N 48°47' W 123°14'0 0.0
2017-Nov-03 05:15N 48°47' W 123°14'0 0.0
2017-Nov-03 04:45N 48°47' W 123°14'0 0.0
2017-Nov-03 04:27N 48°47' W 123°14'0 0.0
2017-Nov-03 03:51N 48°47' W 123°14'0 0.0
2017-Nov-03 03:30N 48°47' W 123°14'0 0.0
2017-Nov-03 03:01N 48°47' W 123°14'3 6.6
2017-Nov-03 02:30N 48°45' W 123°10'710.0
2017-Nov-03 01:51N 48°47' W 123°00'2 5.0
2017-Nov-03 01:30N 48°46' W 123°02'1 1.4
2017-Nov-03 01:00N 48°46' W 123°03'1 1.7
2017-Nov-03 00:26N 48°46' W 123°05'0 0.1
2017-Nov-03 00:00N 48°46' W 123°05'2 3.9
2017-Nov-02 23:30N 48°46' W 123°02'0 0.4
2017-Nov-02 22:58N 48°46' W 123°02'3 7.2
2017-Nov-02 22:30N 48°49' W 123°01'611.2
2017-Nov-02 22:00N 48°53' W 123°07'610.9
2017-Nov-02 21:28N 48°57' W 123°14'510.6
2017-Nov-02 21:00N 49°01' W 123°19'2 3.8
2017-Nov-02 20:31N 49°03' W 123°19'0 0.3
2017-Nov-02 20:00N 49°03' W 123°19'0 0.1
2017-Nov-02 19:30N 49°03' W 123°19'0 0.1
2017-Nov-02 19:01N 49°03' W 123°19'0 0.1
2017-Nov-02 18:30N 49°03' W 123°19'0 0.1
2017-Nov-02 18:00N 49°03' W 123°19'0 0.0
2017-Nov-02 17:30N 49°03' W 123°19'0 0.4
2017-Nov-02 17:00N 49°03' W 123°19'0 0.2
2017-Nov-02 16:30N 49°02' W 123°19'0 0.1
2017-Nov-02 16:00N 49°02' W 123°19'0 0.4
2017-Nov-02 15:30N 49°02' W 123°19'0 0.2
2017-Nov-02 15:00N 49°02' W 123°19'2 3.1
2017-Nov-02 14:30N 49°04' W 123°19'1 1.5
2017-Nov-02 14:00N 49°05' W 123°19'0 0.4
2017-Nov-02 13:30N 49°05' W 123°19'0 0.4
2017-Nov-02 13:00N 49°05' W 123°19'1 2.0
2017-Nov-02 12:30N 49°06' W 123°19'2 3.9
2017-Nov-02 12:00N 49°08' W 123°19'2 3.5
2017-Nov-02 11:30N 49°10' W 123°19'1 2.4
2017-Nov-02 11:00N 49°11' W 123°19'2 4.3
2017-Nov-02 10:30N 49°10' W 123°23'2 4.1
2017-Nov-02 10:00N 49°10' W 123°26'2 3.9
2017-Nov-02 09:30N 49°09' W 123°28'2 4.0
2017-Nov-02 09:00N 49°09' W 123°31'2 4.1
2017-Nov-02 08:30N 49°08' W 123°34'2 3.5
2017-Nov-02 08:00N 49°08' W 123°37'0 0.2
2017-Nov-02 07:30N 49°08' W 123°37'2 4.2
2017-Nov-02 07:00N 49°08' W 123°34'2 3.8
2017-Nov-02 06:30N 49°09' W 123°31'2 3.6
2017-Nov-02 06:00N 49°09' W 123°28'2 3.8
2017-Nov-02 05:29N 49°10' W 123°25'2 3.8
2017-Nov-02 05:00N 49°10' W 123°23'1 2.8
2017-Nov-02 04:30N 49°11' W 123°21'1 2.8
2017-Nov-02 04:01N 49°11' W 123°19'3 5.7
2017-Nov-02 03:30N 49°08' W 123°20'5 9.9
2017-Nov-02 03:00N 49°03' W 123°20'1 1.5
2017-Nov-02 02:30N 49°03' W 123°19'0 0.2
2017-Nov-02 02:00N 49°03' W 123°19'0 0.0
2017-Nov-02 01:30N 49°03' W 123°19'0 0.0
2017-Nov-02 01:00N 49°03' W 123°19'0 0.0
2017-Nov-02 00:30N 49°03' W 123°19'0 0.0
2017-Nov-02 00:00N 49°03' W 123°19'0 0.0
2017-Nov-01 23:30N 49°03' W 123°19'0 0.1
2017-Nov-01 23:01N 49°03' W 123°19'0 0.1
2017-Nov-01 22:30N 49°03' W 123°19'0 0.1
2017-Nov-01 22:00N 49°03' W 123°19'0 0.1
2017-Nov-01 21:30N 49°03' W 123°19'0 0.0
2017-Nov-01 21:01N 49°03' W 123°19'0 0.1
2017-Nov-01 20:30N 49°03' W 123°19'0 0.1
2017-Nov-01 20:00N 49°03' W 123°19'0 0.0
2017-Nov-01 19:30N 49°03' W 123°19'0 0.0
2017-Nov-01 19:00N 49°03' W 123°19'0 0.0
2017-Nov-01 18:30N 49°03' W 123°19'24 1.5
2017-Nov-01 01:45N 48°39' W 123°29'0 0.0
2017-Nov-01 01:30N 48°39' W 123°29'0 0.0
2017-Nov-01 00:59N 48°39' W 123°29'0 0.1
2017-Nov-01 00:30N 48°39' W 123°28'0 0.1
2017-Nov-01 00:00N 48°39' W 123°28'0 0.1
2017-Oct-31 23:28N 48°39' W 123°28'0 0.1
2017-Oct-31 23:00N 48°39' W 123°28'0 0.6
2017-Oct-31 22:30N 48°39' W 123°29'1 1.4
2017-Oct-31 21:58N 48°39' W 123°30'0 0.3
2017-Oct-31 21:29N 48°39' W 123°30'0 0.6
2017-Oct-31 20:59N 48°39' W 123°29'0 0.2
2017-Oct-31 20:28N 48°39' W 123°29'0 0.1
2017-Oct-31 19:58N 48°39' W 123°29'0 0.0
2017-Oct-31 19:30N 48°39' W 123°29'0 0.3
2017-Oct-31 19:00N 48°39' W 123°29'1 0.1
2017-Oct-31 01:30N 48°39' W 123°27'1 1.2
2017-Oct-31 00:34N 48°39' W 123°29'0 0.5
2017-Oct-31 00:29N 48°39' W 123°29'0 0.2
2017-Oct-30 22:57N 48°39' W 123°28'1 1.9
2017-Oct-30 22:30N 48°39' W 123°27'  
Track history (hours):
 
Tides and Currents Weather Stations Pressure Air Temp Water Temp Dewpoint Dewpoint Depression Visibility Wind Speed Wind Dir Waves Ship Positions

Oceanographic research ship John P. Tully (Canada)

Detailed information on ship capabilities available from University of Delaware's Ocean Information Center.

Last reported at 2017-Nov-08 17:04 UTC. Time now 2017-Nov-21 08:20 UTC.
Position N 49°18' W 123°01'.
Warning: this ship's position is 12 days out of date.

Length 68.9 m; beam 14.5 m; draft 4.5 m.

MMSI: 316114000.

Date/timePositionNaut miles runAvg speedWind from/ knotsBaromVisibWave heightAir tempDewpointWater temp
2017-Nov-08 17:04N 49°18' W 123°01'0 0.0
2017-Nov-08 17:00N 49°18' W 123°01'0 1.0
2017-Nov-08 16:30N 49°18' W 123°01'1 2.3
2017-Nov-08 16:00N 49°18' W 123°03'1 2.9
2017-Nov-08 15:30N 49°18' W 123°05'4 8.8
2017-Nov-08 15:00N 49°19' W 123°12'2 3.9
2017-Nov-08 14:30N 49°18' W 123°14'2 3.4
2017-Nov-08 14:00N 49°18' W 123°17'3 5.2
2017-Nov-08 13:30N 49°15' W 123°19'3 5.6
2017-Nov-08 13:00N 49°13' W 123°19'3 6.4
2017-Nov-08 12:30N 49°09' W 123°20'3 6.1
2017-Nov-08 12:00N 49°06' W 123°20'3 4.9
2017-Nov-08 11:30N 49°04' W 123°20'3 5.3
2017-Nov-08 10:57N 49°02' W 123°17'3 6.1
2017-Nov-08 10:26N 48°60' W 123°13'3 5.2
2017-Nov-08 09:56N 48°58' W 123°10'2 5.8
2017-Nov-08 09:30N 48°57' W 123°07'3 5.8
2017-Nov-08 08:58N 48°54' W 123°04'7 4.7
2017-Nov-08 07:25N 48°48' W 122°60'2 5.1
2017-Nov-08 07:00N 48°46' W 123°02'3 5.3
2017-Nov-08 06:30N 48°45' W 123°05'3 5.2
2017-Nov-08 06:00N 48°44' W 123°09'2 4.5
2017-Nov-08 05:29N 48°43' W 123°12'2 4.5
2017-Nov-08 05:00N 48°44' W 123°15'  
2017-Nov-05 00:11N 48°44' W 123°24'210.8
2017-Nov-05 00:00N 48°45' W 123°22'510.0
2017-Nov-04 23:30N 48°50' W 123°21'4 7.5
2017-Nov-04 23:00N 48°53' W 123°18'510.8
2017-Nov-04 22:30N 48°59' W 123°19'4 7.7
2017-Nov-04 22:00N 49°03' W 123°19'0 0.1
2017-Nov-04 21:27N 49°03' W 123°19'0 0.1
2017-Nov-04 21:00N 49°03' W 123°19'1 2.0
2017-Nov-04 20:30N 49°03' W 123°18'2 3.9
2017-Nov-04 20:00N 49°05' W 123°20'0 0.0
2017-Nov-04 19:30N 49°05' W 123°20'0 0.0
2017-Nov-04 19:00N 49°05' W 123°20'0 0.0
2017-Nov-04 18:30N 49°05' W 123°20'0 0.0
2017-Nov-04 18:00N 49°05' W 123°20'0 0.0
2017-Nov-04 17:30N 49°05' W 123°20'0 0.1
2017-Nov-04 17:00N 49°05' W 123°20'0 0.1
2017-Nov-04 16:30N 49°05' W 123°20'0 0.1
2017-Nov-04 16:00N 49°05' W 123°20'0 0.0
2017-Nov-04 15:30N 49°05' W 123°20'0 0.1
2017-Nov-04 15:00N 49°05' W 123°20'0 0.0
2017-Nov-04 14:30N 49°05' W 123°20'0 0.1
2017-Nov-04 14:00N 49°05' W 123°20'0 0.7
2017-Nov-04 13:29N 49°05' W 123°21'2 3.6
2017-Nov-04 13:00N 49°04' W 123°23'2 3.9
2017-Nov-04 12:30N 49°03' W 123°26'2 4.4
2017-Nov-04 12:00N 49°02' W 123°28'2 4.3
2017-Nov-04 11:30N 49°01' W 123°31'0 0.7
2017-Nov-04 11:00N 49°01' W 123°31'2 4.0
2017-Nov-04 10:28N 49°02' W 123°28'2 4.7
2017-Nov-04 10:00N 49°03' W 123°25'2 4.1
2017-Nov-04 09:30N 49°04' W 123°22'2 3.6
2017-Nov-04 09:00N 49°05' W 123°20'2 3.2
2017-Nov-04 08:30N 49°04' W 123°22'2 4.7
2017-Nov-04 08:00N 49°03' W 123°25'2 3.9
2017-Nov-04 07:30N 49°02' W 123°28'2 3.9
2017-Nov-04 07:00N 49°01' W 123°31'1 2.2
2017-Nov-04 06:30N 49°00' W 123°32'0 0.5
2017-Nov-04 06:00N 49°00' W 123°32'2 2.9
2017-Nov-04 05:29N 49°01' W 123°30'2 3.6
2017-Nov-04 04:57N 49°02' W 123°28'2 4.3
2017-Nov-04 04:30N 49°03' W 123°25'2 4.2
2017-Nov-04 04:00N 49°04' W 123°22'2 3.8
2017-Nov-04 03:30N 49°05' W 123°20'0 0.0
2017-Nov-04 02:53N 49°05' W 123°20'0 0.7
2017-Nov-04 02:30N 49°05' W 123°20'0 0.4
2017-Nov-04 01:58N 49°05' W 123°20'0 0.1
2017-Nov-04 01:30N 49°05' W 123°20'0 0.0
2017-Nov-04 01:00N 49°05' W 123°20'0 0.1
2017-Nov-04 00:30N 49°05' W 123°20'0 0.1
2017-Nov-04 00:00N 49°05' W 123°20'0 0.2
2017-Nov-03 23:28N 49°05' W 123°20'0 0.1
2017-Nov-03 23:00N 49°05' W 123°20'0 0.1
2017-Nov-03 22:30N 49°05' W 123°20'0 0.1
2017-Nov-03 22:00N 49°05' W 123°20'0 0.1
2017-Nov-03 21:30N 49°05' W 123°20'0 0.0
2017-Nov-03 21:00N 49°05' W 123°20'0 0.0
2017-Nov-03 20:30N 49°05' W 123°20'0 0.0
2017-Nov-03 20:00N 49°05' W 123°20'0 0.0
2017-Nov-03 19:31N 49°05' W 123°20'0 0.0
2017-Nov-03 19:01N 49°05' W 123°20'0 0.1
2017-Nov-03 18:30N 49°05' W 123°20'0 0.0
2017-Nov-03 18:01N 49°05' W 123°20'1 1.0
2017-Nov-03 17:28N 49°04' W 123°20'2 3.1
2017-Nov-03 16:50N 49°02' W 123°19'0 0.5
2017-Nov-03 16:30N 49°03' W 123°19'0 0.0
2017-Nov-03 15:58N 49°03' W 123°19'0 0.1
2017-Nov-03 15:31N 49°03' W 123°19'0 0.0
2017-Nov-03 15:00N 49°03' W 123°19'0 0.0
2017-Nov-03 14:30N 49°03' W 123°19'0 0.9
2017-Nov-03 14:00N 49°02' W 123°20'1 1.1
2017-Nov-03 13:29N 49°02' W 123°19'4 7.9
2017-Nov-03 12:59N 48°59' W 123°14'4 9.0
2017-Nov-03 12:30N 48°57' W 123°09'5 8.9
2017-Nov-03 11:58N 48°53' W 123°04'610.3
2017-Nov-03 11:23N 48°48' W 122°60'411.3
2017-Nov-03 11:01N 48°45' W 123°04'510.7
2017-Nov-03 10:30N 48°46' W 123°12'2 3.7
2017-Nov-03 10:00N 48°47' W 123°14'0 0.0
2017-Nov-03 09:27N 48°47' W 123°14'0 0.1
2017-Nov-03 08:57N 48°47' W 123°14'0 0.0
2017-Nov-03 08:18N 48°47' W 123°14'0 0.1
2017-Nov-03 07:51N 48°47' W 123°14'0 0.1
2017-Nov-03 07:27N 48°47' W 123°14'0 0.1
2017-Nov-03 06:54N 48°47' W 123°14'0 0.0
2017-Nov-03 05:15N 48°47' W 123°14'0 0.0
2017-Nov-03 04:45N 48°47' W 123°14'0 0.0
2017-Nov-03 04:27N 48°47' W 123°14'0 0.0
2017-Nov-03 03:51N 48°47' W 123°14'0 0.0
2017-Nov-03 03:30N 48°47' W 123°14'0 0.0
2017-Nov-03 03:01N 48°47' W 123°14'3 6.6
2017-Nov-03 02:30N 48°45' W 123°10'710.0
2017-Nov-03 01:51N 48°47' W 123°00'2 5.0
2017-Nov-03 01:30N 48°46' W 123°02'1 1.4
2017-Nov-03 01:00N 48°46' W 123°03'1 1.7
2017-Nov-03 00:26N 48°46' W 123°05'0 0.1
2017-Nov-03 00:00N 48°46' W 123°05'2 3.9
2017-Nov-02 23:30N 48°46' W 123°02'0 0.4
2017-Nov-02 22:58N 48°46' W 123°02'3 7.2
2017-Nov-02 22:30N 48°49' W 123°01'611.2
2017-Nov-02 22:00N 48°53' W 123°07'610.9
2017-Nov-02 21:28N 48°57' W 123°14'510.6
2017-Nov-02 21:00N 49°01' W 123°19'2 3.8
2017-Nov-02 20:31N 49°03' W 123°19'0 0.3
2017-Nov-02 20:00N 49°03' W 123°19'0 0.1
2017-Nov-02 19:30N 49°03' W 123°19'0 0.1
2017-Nov-02 19:01N 49°03' W 123°19'0 0.1
2017-Nov-02 18:30N 49°03' W 123°19'0 0.1
2017-Nov-02 18:00N 49°03' W 123°19'0 0.0
2017-Nov-02 17:30N 49°03' W 123°19'0 0.4
2017-Nov-02 17:00N 49°03' W 123°19'0 0.2
2017-Nov-02 16:30N 49°02' W 123°19'0 0.1
2017-Nov-02 16:00N 49°02' W 123°19'0 0.4
2017-Nov-02 15:30N 49°02' W 123°19'0 0.2
2017-Nov-02 15:00N 49°02' W 123°19'2 3.1
2017-Nov-02 14:30N 49°04' W 123°19'1 1.5
2017-Nov-02 14:00N 49°05' W 123°19'0 0.4
2017-Nov-02 13:30N 49°05' W 123°19'0 0.4
2017-Nov-02 13:00N 49°05' W 123°19'1 2.0
2017-Nov-02 12:30N 49°06' W 123°19'2 3.9
2017-Nov-02 12:00N 49°08' W 123°19'2 3.5
2017-Nov-02 11:30N 49°10' W 123°19'1 2.4
2017-Nov-02 11:00N 49°11' W 123°19'2 4.3
2017-Nov-02 10:30N 49°10' W 123°23'2 4.1
2017-Nov-02 10:00N 49°10' W 123°26'2 3.9
2017-Nov-02 09:30N 49°09' W 123°28'2 4.0
2017-Nov-02 09:00N 49°09' W 123°31'2 4.1
2017-Nov-02 08:30N 49°08' W 123°34'2 3.5
2017-Nov-02 08:00N 49°08' W 123°37'0 0.2
2017-Nov-02 07:30N 49°08' W 123°37'2 4.2
2017-Nov-02 07:00N 49°08' W 123°34'2 3.8
2017-Nov-02 06:30N 49°09' W 123°31'2 3.6
2017-Nov-02 06:00N 49°09' W 123°28'2 3.8
2017-Nov-02 05:29N 49°10' W 123°25'2 3.8
2017-Nov-02 05:00N 49°10' W 123°23'1 2.8
2017-Nov-02 04:30N 49°11' W 123°21'1 2.8
2017-Nov-02 04:01N 49°11' W 123°19'3 5.7
2017-Nov-02 03:30N 49°08' W 123°20'5 9.9
2017-Nov-02 03:00N 49°03' W 123°20'1 1.5
2017-Nov-02 02:30N 49°03' W 123°19'0 0.2
2017-Nov-02 02:00N 49°03' W 123°19'0 0.0
2017-Nov-02 01:30N 49°03' W 123°19'0 0.0
2017-Nov-02 01:00N 49°03' W 123°19'0 0.0
2017-Nov-02 00:30N 49°03' W 123°19'0 0.0
2017-Nov-02 00:00N 49°03' W 123°19'0 0.0
2017-Nov-01 23:30N 49°03' W 123°19'0 0.1
2017-Nov-01 23:01N 49°03' W 123°19'0 0.1
2017-Nov-01 22:30N 49°03' W 123°19'0 0.1
2017-Nov-01 22:00N 49°03' W 123°19'0 0.1
2017-Nov-01 21:30N 49°03' W 123°19'0 0.0
2017-Nov-01 21:01N 49°03' W 123°19'0 0.1
2017-Nov-01 20:30N 49°03' W 123°19'0 0.1
2017-Nov-01 20:00N 49°03' W 123°19'0 0.0
2017-Nov-01 19:30N 49°03' W 123°19'0 0.0
2017-Nov-01 19:00N 49°03' W 123°19'0 0.0
2017-Nov-01 18:30N 49°03' W 123°19'24 1.5
2017-Nov-01 01:45N 48°39' W 123°29'0 0.0
2017-Nov-01 01:30N 48°39' W 123°29'0 0.0
2017-Nov-01 00:59N 48°39' W 123°29'0 0.1
2017-Nov-01 00:30N 48°39' W 123°28'0 0.1
2017-Nov-01 00:00N 48°39' W 123°28'0 0.1
2017-Oct-31 23:28N 48°39' W 123°28'0 0.1
2017-Oct-31 23:00N 48°39' W 123°28'0 0.6
2017-Oct-31 22:30N 48°39' W 123°29'1 1.4
2017-Oct-31 21:58N 48°39' W 123°30'0 0.3
2017-Oct-31 21:29N 48°39' W 123°30'0 0.6
2017-Oct-31 20:59N 48°39' W 123°29'0 0.2
2017-Oct-31 20:28N 48°39' W 123°29'0 0.1
2017-Oct-31 19:58N 48°39' W 123°29'0 0.0
2017-Oct-31 19:30N 48°39' W 123°29'0 0.3
2017-Oct-31 19:00N 48°39' W 123°29'1 0.1
2017-Oct-31 01:30N 48°39' W 123°27'1 1.2
2017-Oct-31 00:34N 48°39' W 123°29'0 0.5
2017-Oct-31 00:29N 48°39' W 123°29'0 0.2
2017-Oct-30 22:57N 48°39' W 123°28'1 1.9
2017-Oct-30 22:30N 48°39' W 123°27'  

Dump ship's entire track history